createdAt,value
2019-04-28T00:00:02.216Z,1009.05
2019-04-28T00:01:02.203Z,1008.95
2019-04-28T00:02:02.202Z,1009.06
2019-04-28T00:03:02.181Z,1008.96
2019-04-28T00:04:03.400Z,1008.91
2019-04-28T00:05:02.164Z,1008.94
2019-04-28T00:06:02.159Z,1008.94
2019-04-28T00:07:02.147Z,1008.90
2019-04-28T00:08:02.131Z,1008.95
2019-04-28T00:09:02.112Z,1008.89
2019-04-28T00:10:02.106Z,1008.92
2019-04-28T00:11:02.155Z,1008.97
2019-04-28T00:12:02.109Z,1008.89
2019-04-28T00:13:02.077Z,1008.94
2019-04-28T00:14:02.056Z,1008.93
2019-04-28T00:15:02.518Z,1009.01
2019-04-28T00:16:02.037Z,1009.04
2019-04-28T00:17:02.029Z,1009.14
2019-04-28T00:18:04.138Z,1009.11
2019-04-28T00:19:02.009Z,1009.11
2019-04-28T00:20:01.994Z,1009.12
2019-04-28T00:21:02.025Z,1009.20
2019-04-28T00:22:01.979Z,1009.13
2019-04-28T00:23:03.870Z,1009.13
2019-04-28T00:24:01.984Z,1009.11
2019-04-28T00:25:01.950Z,1009.09
2019-04-28T00:26:01.936Z,1009.13
2019-04-28T00:27:01.978Z,1009.19
2019-04-28T00:28:01.923Z,1009.14
2019-04-28T00:29:01.908Z,1009.14
2019-04-28T00:30:02.196Z,1009.10
2019-04-28T00:31:02.493Z,1009.14
2019-04-28T00:32:01.868Z,1009.14
2019-04-28T00:33:01.879Z,1009.10
2019-04-28T00:34:01.848Z,1009.04
2019-04-28T00:35:02.453Z,1009.01
2019-04-28T00:36:01.838Z,1009.08
2019-04-28T00:37:01.870Z,1009.04
2019-04-28T00:38:01.808Z,1009.08
2019-04-28T00:39:01.795Z,1009.07
2019-04-28T00:40:01.782Z,1009.07
2019-04-28T00:41:02.394Z,1009.03
2019-04-28T00:42:03.378Z,1009.07
2019-04-28T00:43:01.760Z,1009.07
2019-04-28T00:44:01.977Z,1009.04
2019-04-28T00:45:02.056Z,1009.05
2019-04-28T00:46:01.709Z,1008.97
2019-04-28T00:47:01.708Z,1008.99
2019-04-28T00:48:01.724Z,1009.02
2019-04-28T00:49:02.221Z,1009.02
2019-04-28T00:50:02.251Z,1009.06
2019-04-28T00:51:01.865Z,1009.05
2019-04-28T00:52:03.069Z,1009.05
2019-04-28T00:53:01.861Z,1009.07
2019-04-28T00:54:01.624Z,1009.08
2019-04-28T00:55:01.688Z,1009.08
2019-04-28T00:56:02.158Z,1009.13
2019-04-28T00:57:01.589Z,1009.10
2019-04-28T00:58:01.609Z,1009.11
2019-04-28T00:59:01.757Z,1009.15
2019-04-28T01:00:02.438Z,1009.16
2019-04-28T01:01:01.587Z,1009.18
2019-04-28T01:02:01.581Z,1009.18
2019-04-28T01:03:02.174Z,1009.16
2019-04-28T01:04:02.058Z,1009.22
2019-04-28T01:05:01.931Z,1009.18
2019-04-28T01:06:01.959Z,1009.19
2019-04-28T01:07:01.674Z,1009.16
2019-04-28T01:08:01.495Z,1009.15
2019-04-28T01:09:03.798Z,1009.16
2019-04-28T01:10:01.584Z,1009.19
2019-04-28T01:11:01.871Z,1009.17
2019-04-28T01:12:01.899Z,1009.21
2019-04-28T01:13:02.123Z,1009.16
2019-04-28T01:14:01.776Z,1009.22
2019-04-28T01:15:04.506Z,1009.26
2019-04-28T01:16:01.393Z,1009.27
2019-04-28T01:17:01.383Z,1009.20
2019-04-28T01:18:01.367Z,1009.24
2019-04-28T01:19:01.371Z,1009.28
2019-04-28T01:20:01.348Z,1009.30
2019-04-28T01:21:01.333Z,1009.32
2019-04-28T01:22:01.321Z,1009.35
2019-04-28T01:23:01.315Z,1009.29
2019-04-28T01:24:01.325Z,1009.36
2019-04-28T01:25:01.344Z,1009.31
2019-04-28T01:26:01.275Z,1009.30
2019-04-28T01:27:01.271Z,1009.34
2019-04-28T01:28:01.258Z,1009.34
2019-04-28T01:29:01.255Z,1009.37
2019-04-28T01:30:07.859Z,1009.36
2019-04-28T01:31:02.272Z,1009.40
2019-04-28T01:32:01.223Z,1009.42
2019-04-28T01:33:01.217Z,1009.46
2019-04-28T01:34:01.677Z,1009.45
2019-04-28T01:35:01.185Z,1009.46
2019-04-28T01:36:01.168Z,1009.42
2019-04-28T01:37:01.158Z,1009.47
2019-04-28T01:38:01.157Z,1009.45
2019-04-28T01:39:01.189Z,1009.44
2019-04-28T01:40:01.126Z,1009.44
2019-04-28T01:41:01.565Z,1009.39
2019-04-28T01:42:01.110Z,1009.41
2019-04-28T01:43:01.095Z,1009.39
2019-04-28T01:44:01.108Z,1009.50
2019-04-28T01:45:01.082Z,1009.48
2019-04-28T01:46:01.058Z,1009.49
2019-04-28T01:47:01.271Z,1009.49
2019-04-28T01:48:02.293Z,1009.45
2019-04-28T01:49:01.056Z,1009.44
2019-04-28T01:50:02.055Z,1009.48
2019-04-28T01:51:01.006Z,1009.52
2019-04-28T01:52:01.342Z,1009.53
2019-04-28T01:53:00.988Z,1009.50
2019-04-28T01:54:00.984Z,1009.54
2019-04-28T01:55:01.112Z,1009.51
2019-04-28T01:56:00.951Z,1009.59
2019-04-28T01:57:01.531Z,1009.61
2019-04-28T01:58:00.940Z,1009.63
2019-04-28T01:59:00.936Z,1009.59
2019-04-28T02:00:00.916Z,1009.59
2019-04-28T02:01:00.902Z,1009.60
2019-04-28T02:02:00.914Z,1009.55
2019-04-28T02:03:02.079Z,1009.61
2019-04-28T02:04:00.876Z,1009.59
2019-04-28T02:05:00.852Z,1009.54
2019-04-28T02:06:00.838Z,1009.60
2019-04-28T02:07:00.830Z,1009.56
2019-04-28T02:08:00.830Z,1009.58
2019-04-28T02:09:01.006Z,1009.56
2019-04-28T02:10:00.922Z,1009.58
2019-04-28T02:11:00.814Z,1009.62
2019-04-28T02:12:00.925Z,1009.51
2019-04-28T02:13:00.835Z,1009.56
2019-04-28T02:14:00.789Z,1009.62
2019-04-28T02:15:01.218Z,1009.66
2019-04-28T02:16:00.743Z,1009.64
2019-04-28T02:17:00.723Z,1009.64
2019-04-28T02:18:00.799Z,1009.57
2019-04-28T02:19:00.709Z,1009.67
2019-04-28T02:20:00.891Z,1009.60
2019-04-28T02:21:00.677Z,1009.64
2019-04-28T02:22:00.686Z,1009.65
2019-04-28T02:23:00.657Z,1009.68
2019-04-28T02:24:00.641Z,1009.69
2019-04-28T02:25:00.675Z,1009.65
2019-04-28T02:26:00.637Z,1009.68
2019-04-28T02:27:01.015Z,1009.66
2019-04-28T02:28:00.601Z,1009.66
2019-04-28T02:29:00.653Z,1009.72
2019-04-28T02:30:00.613Z,1009.66
2019-04-28T02:31:02.278Z,1009.74
2019-04-28T02:32:02.212Z,1009.69
2019-04-28T02:33:01.596Z,1009.72
2019-04-28T02:34:00.759Z,1009.70
2019-04-28T02:35:01.598Z,1009.71
2019-04-28T02:36:01.401Z,1009.78
2019-04-28T02:37:01.563Z,1009.70
2019-04-28T02:38:00.509Z,1009.75
2019-04-28T02:39:00.851Z,1009.75
2019-04-28T02:40:03.336Z,1009.76
2019-04-28T02:41:00.468Z,1009.75
2019-04-28T02:42:01.429Z,1009.81
2019-04-28T02:43:01.270Z,1009.78
2019-04-28T02:44:01.067Z,1009.81
2019-04-28T02:45:00.732Z,1009.80
2019-04-28T02:46:00.775Z,1009.79
2019-04-28T02:47:00.980Z,1009.83
2019-04-28T02:48:01.097Z,1009.81
2019-04-28T02:49:00.908Z,1009.87
2019-04-28T02:50:00.916Z,1009.86
2019-04-28T02:51:01.212Z,1009.83
2019-04-28T02:52:02.919Z,1009.85
2019-04-28T02:53:01.617Z,1009.84
2019-04-28T02:54:00.646Z,1009.86
2019-04-28T02:55:03.064Z,1009.87
2019-04-28T02:56:00.991Z,1009.88
2019-04-28T02:57:01.365Z,1009.99
2019-04-28T02:58:01.412Z,1009.93
2019-04-28T02:59:00.965Z,1009.94
2019-04-28T03:00:00.622Z,1009.95
2019-04-28T03:01:11.095Z,1009.95
2019-04-28T03:02:01.229Z,1010.03
2019-04-28T03:03:01.482Z,1009.94
2019-04-28T03:04:00.463Z,1010.04
2019-04-28T03:05:00.509Z,1010.05
2019-04-28T03:06:01.456Z,1010.11
2019-04-28T03:07:01.370Z,1010.08
2019-04-28T03:08:00.950Z,1010.10
2019-04-28T03:09:00.403Z,1010.10
2019-04-28T03:10:03.224Z,1010.14
2019-04-28T03:11:00.929Z,1010.15
2019-04-28T03:12:01.455Z,1010.15
2019-04-28T03:13:01.110Z,1010.14
2019-04-28T03:14:01.027Z,1010.13
2019-04-28T03:15:00.634Z,1010.17
2019-04-28T03:16:01.557Z,1010.18
2019-04-28T03:17:00.913Z,1010.18
2019-04-28T03:18:01.772Z,1010.08
2019-04-28T03:19:01.231Z,1010.08
2019-04-28T03:20:00.984Z,1010.11
2019-04-28T03:21:03.542Z,1010.11
2019-04-28T03:22:01.334Z,1010.13
2019-04-28T03:23:00.994Z,1010.09
2019-04-28T03:24:01.297Z,1010.14
2019-04-28T03:25:00.882Z,1010.17
2019-04-28T03:26:01.413Z,1010.19
2019-04-28T03:27:00.634Z,1010.19
2019-04-28T03:28:00.648Z,1010.21
2019-04-28T03:29:01.011Z,1010.23
2019-04-28T03:30:00.887Z,1010.22
2019-04-28T03:31:06.352Z,1010.27
2019-04-28T03:32:22.832Z,1010.27
2019-04-28T03:33:10.612Z,1010.20
2019-04-28T03:34:03.981Z,1010.28
2019-04-28T03:35:03.120Z,1010.21
2019-04-28T03:36:03.756Z,1010.28
2019-04-28T03:37:00.862Z,1010.20
2019-04-28T03:38:01.263Z,1010.13
2019-04-28T03:39:00.751Z,1010.20
2019-04-28T03:40:00.613Z,1010.21
2019-04-28T03:41:01.030Z,1010.21
2019-04-28T03:42:00.171Z,1010.22
2019-04-28T03:43:02.874Z,1010.27
2019-04-28T03:44:00.460Z,1010.25
2019-04-28T03:45:01.045Z,1010.25
2019-04-28T03:46:02.812Z,1010.26
2019-04-28T03:47:00.695Z,1010.33
2019-04-28T03:48:00.347Z,1010.30
2019-04-28T03:49:00.744Z,1010.26
2019-04-28T03:50:00.185Z,1010.29
2019-04-28T03:51:00.689Z,1010.36
2019-04-28T03:52:00.426Z,1010.25
2019-04-28T03:53:01.070Z,1010.32
2019-04-28T03:54:00.642Z,1010.31
2019-04-28T03:55:00.542Z,1010.32
2019-04-28T03:56:01.582Z,1010.37
2019-04-28T03:57:01.261Z,1010.28
2019-04-28T03:58:00.905Z,1010.40
2019-04-28T03:59:00.474Z,1010.40
2019-04-28T04:00:01.503Z,1010.38
2019-04-28T04:01:02.642Z,1010.36
2019-04-28T04:02:02.867Z,1010.39
2019-04-28T04:03:00.831Z,1010.41
2019-04-28T04:04:01.240Z,1010.47
2019-04-28T04:05:03.315Z,1010.47
2019-04-28T04:06:00.772Z,1010.48
2019-04-28T04:07:01.500Z,1010.50
2019-04-28T04:08:00.818Z,1010.47
2019-04-28T04:09:00.358Z,1010.51
2019-04-28T04:10:00.990Z,1010.47
2019-04-28T04:11:00.278Z,1010.46
2019-04-28T04:12:00.407Z,1010.53
2019-04-28T04:13:00.911Z,1010.50
2019-04-28T04:14:01.617Z,1010.55
2019-04-28T04:15:00.764Z,1010.59
2019-04-28T04:16:01.522Z,1010.48
2019-04-28T04:17:00.107Z,1010.49
2019-04-28T04:18:01.314Z,1010.53
2019-04-28T04:19:00.751Z,1010.51
2019-04-28T04:20:01.827Z,1010.56
2019-04-28T04:21:00.792Z,1010.58
2019-04-28T04:22:00.371Z,1010.61
2019-04-28T04:23:01.526Z,1010.61
2019-04-28T04:24:01.115Z,1010.61
2019-04-28T04:25:01.332Z,1010.65
2019-04-28T04:26:01.674Z,1010.70
2019-04-28T04:27:00.887Z,1010.72
2019-04-28T04:28:00.432Z,1010.75
2019-04-28T04:29:21.719Z,1010.69
2019-04-28T04:30:01.535Z,1010.73
2019-04-28T04:31:02.500Z,1010.77
2019-04-28T04:32:11.585Z,1010.77
2019-04-28T04:33:01.313Z,1010.80
2019-04-28T04:34:02.634Z,1010.78
2019-04-28T04:35:00.755Z,1010.80
2019-04-28T04:36:01.575Z,1010.80
2019-04-28T04:37:00.743Z,1010.82
2019-04-28T04:38:00.511Z,1010.77
2019-04-28T04:39:01.891Z,1010.83
2019-04-28T04:40:01.328Z,1010.77
2019-04-28T04:41:01.556Z,1010.81
2019-04-28T04:42:00.610Z,1010.81
2019-04-28T04:43:01.568Z,1010.82
2019-04-28T04:44:01.062Z,1010.84
2019-04-28T04:45:00.477Z,1010.90
2019-04-28T04:46:01.357Z,1010.93
2019-04-28T04:47:01.006Z,1010.92
2019-04-28T04:48:00.620Z,1010.92
2019-04-28T04:49:00.654Z,1010.95
2019-04-28T04:50:00.245Z,1010.95
2019-04-28T04:51:00.762Z,1010.97
2019-04-28T04:52:00.422Z,1010.92
2019-04-28T04:52:59.010Z,1010.93
2019-04-28T04:54:01.042Z,1010.96
2019-04-28T04:55:01.310Z,1010.99
2019-04-28T04:56:00.314Z,1011.02
2019-04-28T04:57:00.067Z,1010.99
2019-04-28T04:58:00.749Z,1010.98
2019-04-28T04:59:02.324Z,1011.07
2019-04-28T05:00:00.053Z,1011.16
2019-04-28T05:01:00.773Z,1011.16
2019-04-28T05:02:01.731Z,1011.17
2019-04-28T05:03:00.816Z,1011.17
2019-04-28T05:03:59.649Z,1011.17
2019-04-28T05:05:00.466Z,1011.20
2019-04-28T05:06:00.120Z,1011.26
2019-04-28T05:06:59.671Z,1011.25
2019-04-28T05:08:00.338Z,1011.20
2019-04-28T05:08:59.909Z,1011.27
2019-04-28T05:09:59.544Z,1011.27
2019-04-28T05:11:00.024Z,1011.30
2019-04-28T05:11:59.772Z,1011.34
2019-04-28T05:13:00.240Z,1011.37
2019-04-28T05:13:59.657Z,1011.30
2019-04-28T05:15:00.502Z,1011.30
2019-04-28T05:15:59.813Z,1011.33
2019-04-28T05:17:00.671Z,1011.29
2019-04-28T05:18:00.191Z,1011.29
2019-04-28T05:19:00.130Z,1011.27
2019-04-28T05:19:59.487Z,1011.26
2019-04-28T05:20:59.495Z,1011.23
2019-04-28T05:21:59.991Z,1011.12
2019-04-28T05:23:00.277Z,1011.19
2019-04-28T05:23:59.632Z,1011.13
2019-04-28T05:25:00.068Z,1011.12
2019-04-28T05:26:01.539Z,1011.17
2019-04-28T05:26:59.729Z,1011.24
2019-04-28T05:28:02.692Z,1011.24
2019-04-28T05:28:59.588Z,1011.23
2019-04-28T05:30:02.435Z,1011.29
2019-04-28T05:31:00.102Z,1011.33
2019-04-28T05:31:59.804Z,1011.38
2019-04-28T05:33:00.260Z,1011.43
2019-04-28T05:34:00.017Z,1011.45
2019-04-28T05:35:00.175Z,1011.53
2019-04-28T05:36:02.650Z,1011.53
2019-04-28T05:37:00.540Z,1011.56
2019-04-28T05:37:59.794Z,1011.61
2019-04-28T05:39:00.155Z,1011.57
2019-04-28T05:40:00.656Z,1011.65
2019-04-28T05:41:02.391Z,1011.62
2019-04-28T05:41:58.505Z,1011.71
2019-04-28T05:43:00.515Z,1011.72
2019-04-28T05:43:59.632Z,1011.66
2019-04-28T05:44:59.956Z,1011.72
2019-04-28T05:46:00.154Z,1011.67
2019-04-28T05:46:59.565Z,1011.71
2019-04-28T05:47:59.448Z,1011.71
2019-04-28T05:48:59.977Z,1011.68
2019-04-28T05:49:59.889Z,1011.65
2019-04-28T05:50:59.918Z,1011.71
2019-04-28T05:51:58.373Z,1011.65
2019-04-28T05:53:00.379Z,1011.69
2019-04-28T05:53:59.512Z,1011.76
2019-04-28T05:54:59.804Z,1011.73
2019-04-28T05:56:00.087Z,1011.76
2019-04-28T05:56:59.695Z,1011.74
2019-04-28T05:57:59.952Z,1011.70
2019-04-28T05:58:58.311Z,1011.72
2019-04-28T06:00:01.031Z,1011.70
2019-04-28T06:01:00.338Z,1011.73
2019-04-28T06:02:00.492Z,1011.70
2019-04-28T06:02:58.291Z,1011.79
2019-04-28T06:03:58.242Z,1011.71
2019-04-28T06:04:59.937Z,1011.74
2019-04-28T06:05:59.897Z,1011.77
2019-04-28T06:06:59.752Z,1011.78
2019-04-28T06:07:59.616Z,1011.85
2019-04-28T06:08:59.813Z,1011.89
2019-04-28T06:10:00.047Z,1011.88
2019-04-28T06:10:59.928Z,1011.95
2019-04-28T06:12:00.022Z,1011.92
2019-04-28T06:12:59.723Z,1011.91
2019-04-28T06:13:59.933Z,1011.95
2019-04-28T06:15:00.029Z,1011.86
2019-04-28T06:15:59.821Z,1011.96
2019-04-28T06:16:58.146Z,1011.91
2019-04-28T06:18:00.023Z,1011.95
2019-04-28T06:18:59.967Z,1011.96
2019-04-28T06:20:00.036Z,1011.98
2019-04-28T06:20:58.057Z,1011.96
2019-04-28T06:21:58.044Z,1011.99
2019-04-28T06:22:58.066Z,1011.91
2019-04-28T06:23:58.064Z,1011.88
2019-04-28T06:24:58.010Z,1011.93
2019-04-28T06:25:58.010Z,1011.91
2019-04-28T06:26:57.991Z,1011.94
2019-04-28T06:27:57.990Z,1012.01
2019-04-28T06:28:57.994Z,1011.98
2019-04-28T06:29:57.959Z,1011.92
2019-04-28T06:30:57.952Z,1011.99
2019-04-28T06:31:57.943Z,1011.93
2019-04-28T06:33:07.603Z,1011.89
2019-04-28T06:33:58.926Z,1011.89
2019-04-28T06:34:57.900Z,1011.92
2019-04-28T06:35:57.897Z,1011.94
2019-04-28T06:36:57.890Z,1011.93
2019-04-28T06:37:57.873Z,1011.89
2019-04-28T06:38:57.914Z,1011.92
2019-04-28T06:39:57.854Z,1011.92
2019-04-28T06:40:57.834Z,1011.88
2019-04-28T06:41:57.830Z,1011.95
2019-04-28T06:42:57.815Z,1011.89
2019-04-28T06:43:57.819Z,1011.80
2019-04-28T06:44:57.821Z,1011.96
2019-04-28T06:45:57.783Z,1011.96
2019-04-28T06:46:57.768Z,1011.95
2019-04-28T06:47:57.763Z,1011.93
2019-04-28T06:48:57.779Z,1012.00
2019-04-28T06:49:57.784Z,1011.96
2019-04-28T06:50:57.752Z,1011.91
2019-04-28T06:51:57.747Z,1012.01
2019-04-28T06:52:57.705Z,1011.98
2019-04-28T06:53:57.709Z,1012.03
2019-04-28T06:54:57.683Z,1012.12
2019-04-28T06:55:57.676Z,1012.03
2019-04-28T06:56:57.661Z,1012.02
2019-04-28T06:57:57.684Z,1012.05
2019-04-28T06:58:59.322Z,1011.97
2019-04-28T06:59:57.633Z,1012.01
2019-04-28T07:00:57.627Z,1012.07
2019-04-28T07:01:57.622Z,1012.05
2019-04-28T07:02:57.598Z,1012.07
2019-04-28T07:03:57.605Z,1012.08
2019-04-28T07:05:01.940Z,1012.07
2019-04-28T07:05:57.567Z,1012.08
2019-04-28T07:06:57.553Z,1012.14
2019-04-28T07:07:57.605Z,1012.06
2019-04-28T07:08:57.553Z,1012.08
2019-04-28T07:09:57.527Z,1012.08
2019-04-28T07:10:57.514Z,1012.09
2019-04-28T07:11:57.509Z,1012.06
2019-04-28T07:12:57.501Z,1012.08
2019-04-28T07:13:57.546Z,1012.11
2019-04-28T07:14:57.521Z,1012.08
2019-04-28T07:15:57.457Z,1012.14
2019-04-28T07:16:57.451Z,1012.08
2019-04-28T07:17:57.439Z,1012.11
2019-04-28T07:18:57.453Z,1012.09
2019-04-28T07:19:57.412Z,1012.11
2019-04-28T07:20:57.410Z,1012.17
2019-04-28T07:21:57.397Z,1012.18
2019-04-28T07:22:57.394Z,1012.11
2019-04-28T07:23:57.369Z,1012.15
2019-04-28T07:24:57.387Z,1012.17
2019-04-28T07:25:57.371Z,1012.18
2019-04-28T07:26:57.339Z,1012.13
2019-04-28T07:27:57.326Z,1012.11
2019-04-28T07:28:57.320Z,1012.22
2019-04-28T07:29:57.326Z,1012.15
2019-04-28T07:30:57.299Z,1012.25
2019-04-28T07:31:57.288Z,1012.23
2019-04-28T07:32:57.275Z,1012.19
2019-04-28T07:33:57.278Z,1012.21
2019-04-28T07:34:57.262Z,1012.20
2019-04-28T07:35:57.246Z,1012.18
2019-04-28T07:36:57.251Z,1012.22
2019-04-28T07:37:57.228Z,1012.27
2019-04-28T07:38:57.210Z,1012.26
2019-04-28T07:39:57.230Z,1012.31
2019-04-28T07:40:57.190Z,1012.28
2019-04-28T07:41:57.189Z,1012.29
2019-04-28T07:42:57.171Z,1012.30
2019-04-28T07:43:57.152Z,1012.35
2019-04-28T07:44:57.180Z,1012.37
2019-04-28T07:45:57.140Z,1012.37
2019-04-28T07:46:57.182Z,1012.43
2019-04-28T07:47:57.131Z,1012.44
2019-04-28T07:48:57.105Z,1012.52
2019-04-28T07:49:57.130Z,1012.58
2019-04-28T07:50:57.080Z,1012.48
2019-04-28T07:51:57.088Z,1012.58
2019-04-28T07:52:57.059Z,1012.51
2019-04-28T07:53:57.044Z,1012.54
2019-04-28T07:54:57.046Z,1012.60
2019-04-28T07:55:57.022Z,1012.72
2019-04-28T07:56:57.014Z,1012.71
2019-04-28T07:57:57.046Z,1012.67
2019-04-28T07:58:56.988Z,1012.73
2019-04-28T07:59:56.992Z,1012.70
2019-04-28T08:00:56.972Z,1012.74
2019-04-28T08:01:56.958Z,1012.76
2019-04-28T08:02:56.947Z,1012.76
2019-04-28T08:03:57.578Z,1012.75
2019-04-28T08:04:56.945Z,1012.76
2019-04-28T08:05:56.913Z,1012.75
2019-04-28T08:06:56.903Z,1012.81
2019-04-28T08:07:56.888Z,1012.86
2019-04-28T08:08:56.875Z,1012.85
2019-04-28T08:09:56.903Z,1012.87
2019-04-28T08:10:56.866Z,1012.92
2019-04-28T08:11:56.875Z,1012.85
2019-04-28T08:12:56.831Z,1012.87
2019-04-28T08:13:56.823Z,1012.91
2019-04-28T08:14:56.846Z,1012.92
2019-04-28T08:15:56.811Z,1012.91
2019-04-28T08:16:56.831Z,1012.86
2019-04-28T08:17:56.776Z,1012.89
2019-04-28T08:18:56.772Z,1012.89
2019-04-28T08:19:56.822Z,1012.92
2019-04-28T08:20:56.767Z,1012.93
2019-04-28T08:21:56.753Z,1012.94
2019-04-28T08:22:56.727Z,1012.97
2019-04-28T08:23:56.723Z,1012.99
2019-04-28T08:24:56.765Z,1012.97
2019-04-28T08:25:56.708Z,1013.07
2019-04-28T08:26:56.689Z,1013.01
2019-04-28T08:27:56.667Z,1013.06
2019-04-28T08:28:56.663Z,1013.05
2019-04-28T08:29:58.631Z,1013.07
2019-04-28T08:30:56.705Z,1013.10
2019-04-28T08:31:56.625Z,1013.14
2019-04-28T08:32:56.688Z,1013.16
2019-04-28T08:34:02.476Z,1013.16
2019-04-28T08:34:57.604Z,1013.12
2019-04-28T08:35:56.605Z,1013.19
2019-04-28T08:36:56.602Z,1013.18
2019-04-28T08:37:56.589Z,1013.29
2019-04-28T08:38:56.554Z,1013.28
2019-04-28T08:39:56.537Z,1013.38
2019-04-28T08:40:56.574Z,1013.36
2019-04-28T08:41:56.559Z,1013.34
2019-04-28T08:42:56.511Z,1013.38
2019-04-28T08:43:56.497Z,1013.46
2019-04-28T08:44:56.486Z,1013.47
2019-04-28T08:45:56.519Z,1013.43
2019-04-28T08:46:56.458Z,1013.44
2019-04-28T08:47:58.045Z,1013.49
2019-04-28T08:48:56.449Z,1013.56
2019-04-28T08:49:56.439Z,1013.52
2019-04-28T08:50:56.430Z,1013.53
2019-04-28T08:51:56.437Z,1013.55
2019-04-28T08:52:56.434Z,1013.56
2019-04-28T08:53:56.386Z,1013.64
2019-04-28T08:54:56.377Z,1013.66
2019-04-28T08:55:56.374Z,1013.67
2019-04-28T08:56:56.362Z,1013.74
2019-04-28T08:57:56.343Z,1013.64
2019-04-28T08:58:56.352Z,1013.66
2019-04-28T08:59:56.338Z,1013.70
2019-04-28T09:00:56.386Z,1013.77
2019-04-28T09:01:56.296Z,1013.71
2019-04-28T09:02:56.285Z,1013.73
2019-04-28T09:03:56.276Z,1013.79
2019-04-28T09:04:56.275Z,1013.76
2019-04-28T09:05:56.278Z,1013.74
2019-04-28T09:06:56.244Z,1013.80
2019-04-28T09:07:56.253Z,1013.77
2019-04-28T09:08:56.225Z,1013.75
2019-04-28T09:09:56.216Z,1013.72
2019-04-28T09:10:56.231Z,1013.76
2019-04-28T09:11:56.187Z,1013.75
2019-04-28T09:12:56.180Z,1013.73
2019-04-28T09:13:56.221Z,1013.78
2019-04-28T09:14:56.175Z,1013.79
2019-04-28T09:15:56.186Z,1013.76
2019-04-28T09:16:56.150Z,1013.78
2019-04-28T09:17:56.121Z,1013.73
2019-04-28T09:18:56.110Z,1013.74
2019-04-28T09:19:56.103Z,1013.69
2019-04-28T09:20:56.091Z,1013.77
2019-04-28T09:21:56.100Z,1013.77
2019-04-28T09:22:56.070Z,1013.75
2019-04-28T09:23:56.055Z,1013.78
2019-04-28T09:24:56.047Z,1013.84
2019-04-28T09:25:56.048Z,1013.80
2019-04-28T09:26:56.039Z,1013.90
2019-04-28T09:27:56.011Z,1013.88
2019-04-28T09:28:56.001Z,1013.89
2019-04-28T09:29:56.006Z,1013.90
2019-04-28T09:30:55.989Z,1013.94
2019-04-28T09:31:55.992Z,1013.97
2019-04-28T09:32:55.962Z,1013.98
2019-04-28T09:33:55.948Z,1014.02
2019-04-28T09:34:55.938Z,1014.04
2019-04-28T09:35:55.932Z,1014.00
2019-04-28T09:36:55.935Z,1013.93
2019-04-28T09:37:55.928Z,1013.93
2019-04-28T09:38:55.906Z,1013.95
2019-04-28T09:39:55.887Z,1013.99
2019-04-28T09:40:55.873Z,1013.99
2019-04-28T09:41:55.881Z,1014.05
2019-04-28T09:42:55.897Z,1014.06
2019-04-28T09:43:55.837Z,1014.10
2019-04-28T09:44:55.833Z,1014.03
2019-04-28T09:45:55.819Z,1014.05
2019-04-28T09:46:55.820Z,1014.08
2019-04-28T09:47:55.805Z,1014.09
2019-04-28T09:48:55.786Z,1014.05
2019-04-28T09:49:55.776Z,1014.10
2019-04-28T09:50:55.807Z,1014.12
2019-04-28T09:51:55.771Z,1014.13
2019-04-28T09:52:55.743Z,1014.12
2019-04-28T09:53:55.775Z,1014.13
2019-04-28T09:54:55.742Z,1014.08
2019-04-28T09:55:55.729Z,1014.10
2019-04-28T09:56:57.106Z,1014.18
2019-04-28T09:57:55.696Z,1014.18
2019-04-28T09:58:55.695Z,1014.15
2019-04-28T09:59:55.665Z,1014.19
2019-04-28T10:00:55.659Z,1014.13
2019-04-28T10:01:55.664Z,1014.21
2019-04-28T10:02:55.651Z,1014.23
2019-04-28T10:03:55.639Z,1014.17
2019-04-28T10:04:55.621Z,1014.23
2019-04-28T10:05:55.615Z,1014.29
2019-04-28T10:06:55.615Z,1014.29
2019-04-28T10:07:55.581Z,1014.25
2019-04-28T10:08:55.573Z,1014.29
2019-04-28T10:09:55.555Z,1014.24
2019-04-28T10:10:55.547Z,1014.24
2019-04-28T10:11:55.577Z,1014.25
2019-04-28T10:12:55.527Z,1014.31
2019-04-28T10:13:57.044Z,1014.25
2019-04-28T10:14:55.500Z,1014.25
2019-04-28T10:15:55.492Z,1014.21
2019-04-28T10:16:55.481Z,1014.26
2019-04-28T10:17:55.503Z,1014.28
2019-04-28T10:18:55.456Z,1014.28
2019-04-28T10:19:55.450Z,1014.23
2019-04-28T10:20:55.436Z,1014.26
2019-04-28T10:21:55.423Z,1014.27
2019-04-28T10:22:55.430Z,1014.25
2019-04-28T10:23:55.430Z,1014.25
2019-04-28T10:24:55.394Z,1014.23
2019-04-28T10:25:55.388Z,1014.23
2019-04-28T10:26:55.373Z,1014.24
2019-04-28T10:27:55.383Z,1014.26
2019-04-28T10:28:55.359Z,1014.21
2019-04-28T10:29:55.348Z,1014.20
2019-04-28T10:30:55.354Z,1014.20
2019-04-28T10:31:55.314Z,1014.21
2019-04-28T10:32:55.338Z,1014.16
2019-04-28T10:33:55.305Z,1014.24
2019-04-28T10:34:55.450Z,1014.18
2019-04-28T10:35:55.277Z,1014.26
2019-04-28T10:36:55.302Z,1014.21
2019-04-28T10:37:55.278Z,1014.18
2019-04-28T10:38:55.238Z,1014.24
2019-04-28T10:39:55.232Z,1014.20
2019-04-28T10:40:55.218Z,1014.26
2019-04-28T10:41:55.206Z,1014.24
2019-04-28T10:42:55.257Z,1014.28
2019-04-28T10:43:55.186Z,1014.29
2019-04-28T10:44:55.181Z,1014.25
2019-04-28T10:45:55.193Z,1014.25
2019-04-28T10:46:55.162Z,1014.33
2019-04-28T10:47:55.162Z,1014.30
2019-04-28T10:48:55.138Z,1014.23
2019-04-28T10:49:55.120Z,1014.31
2019-04-28T10:50:55.113Z,1014.27
2019-04-28T10:51:59.430Z,1014.26
2019-04-28T10:52:55.122Z,1014.40
2019-04-28T10:53:55.075Z,1014.37
2019-04-28T10:54:55.143Z,1014.30
2019-04-28T10:55:55.053Z,1014.33
2019-04-28T10:56:55.042Z,1014.31
2019-04-28T10:57:55.049Z,1014.36
2019-04-28T10:58:55.028Z,1014.40
2019-04-28T10:59:55.014Z,1014.39
2019-04-28T11:00:55.012Z,1014.45
2019-04-28T11:01:55.018Z,1014.46
2019-04-28T11:02:55.002Z,1014.50
2019-04-28T11:03:54.970Z,1014.48
2019-04-28T11:05:07.438Z,1014.50
2019-04-28T11:05:55.939Z,1014.55
2019-04-28T11:06:54.933Z,1014.50
2019-04-28T11:07:55.151Z,1014.57
2019-04-28T11:08:54.979Z,1014.47
2019-04-28T11:09:54.911Z,1014.54
2019-04-28T11:10:54.983Z,1014.53
2019-04-28T11:11:54.879Z,1014.50
2019-04-28T11:12:54.900Z,1014.53
2019-04-28T11:13:54.866Z,1014.47
2019-04-28T11:14:54.855Z,1014.51
2019-04-28T11:15:54.870Z,1014.53
2019-04-28T11:16:54.839Z,1014.49
2019-04-28T11:17:54.860Z,1014.52
2019-04-28T11:18:54.802Z,1014.50
2019-04-28T11:19:54.793Z,1014.52
2019-04-28T11:20:54.778Z,1014.46
2019-04-28T11:21:54.773Z,1014.52
2019-04-28T11:22:54.785Z,1014.67
2019-04-28T11:23:54.761Z,1014.56
2019-04-28T11:24:54.738Z,1014.61
2019-04-28T11:25:54.728Z,1014.55
2019-04-28T11:26:54.795Z,1014.60
2019-04-28T11:27:55.541Z,1014.49
2019-04-28T11:28:54.704Z,1014.47
2019-04-28T11:29:54.697Z,1014.63
2019-04-28T11:30:54.673Z,1014.61
2019-04-28T11:31:54.669Z,1014.60
2019-04-28T11:32:54.657Z,1014.65
2019-04-28T11:33:54.656Z,1014.48
2019-04-28T11:34:54.797Z,1014.55
2019-04-28T11:35:54.685Z,1014.61
2019-04-28T11:36:54.641Z,1014.54
2019-04-28T11:37:54.607Z,1014.52
2019-04-28T11:38:54.607Z,1014.55
2019-04-28T11:39:54.575Z,1014.57
2019-04-28T11:40:54.578Z,1014.59
2019-04-28T11:41:54.553Z,1014.56
2019-04-28T11:42:54.602Z,1014.61
2019-04-28T11:43:54.549Z,1014.42
2019-04-28T11:44:54.518Z,1014.52
2019-04-28T11:45:54.507Z,1014.43
2019-04-28T11:46:54.497Z,1014.43
2019-04-28T11:47:54.533Z,1014.45
2019-04-28T11:48:54.489Z,1014.41
2019-04-28T11:49:54.464Z,1014.41
2019-04-28T11:50:54.463Z,1014.37
2019-04-28T11:51:54.488Z,1014.46
2019-04-28T11:52:54.435Z,1014.45
2019-04-28T11:53:54.438Z,1014.42
2019-04-28T11:54:54.413Z,1014.44
2019-04-28T11:55:54.407Z,1014.41
2019-04-28T11:56:54.427Z,1014.41
2019-04-28T11:57:54.380Z,1014.56
2019-04-28T11:58:54.395Z,1014.46
2019-04-28T11:59:54.361Z,1014.48
2019-04-28T12:00:54.346Z,1014.45
2019-04-28T12:01:54.340Z,1014.54
2019-04-28T12:02:54.338Z,1014.54
2019-04-28T12:03:54.340Z,1014.47
2019-04-28T12:04:54.304Z,1014.53